Time;durP1;ratioP1;P1;durP2;ratioP2;P2;SDS_P1;SDS_P2;PMS_P1;PMS_P2;Temp;Humidity;BMP_temperature;BMP_pressure;BME280_temperature;BME280_humidity;BME280_pressure;Samples;Min_cycle;Max_cycle;Signal;HPM_P1;HPM_P2
2022/01/04 00:00:46;;;;;;;5.88;3.33;;;;;;;7.94;88.83;100181.81;5012900;28;20022;-70
2022/01/04 00:03:12;;;;;;;4.55;3.33;;;;;;;7.92;89.06;100168.69;5012470;28;20064;-71
2022/01/04 00:05:38;;;;;;;6.78;3.15;;;;;;;7.91;88.91;100174.09;5012762;28;20468;-70
2022/01/04 00:08:08;;;;;;;4.32;3.35;;;;;;;7.90;89.23;100167.16;5024893;28;20033;-70
2022/01/04 00:10:33;;;;;;;4.65;3.38;;;;;;;7.88;89.09;100166.44;5032507;28;20029;-71
2022/01/04 00:15:44;;;;;;;4.65;3.15;;;;;;;7.88;88.94;100158.50;5031996;28;20071;-71
2022/01/04 00:18:10;;;;;;;3.35;3.08;;;;;;;7.87;89.07;100152.34;5022935;28;20029;-70
2022/01/04 00:20:35;;;;;;;4.15;3.05;;;;;;;7.84;89.19;100155.22;5030421;28;20032;-70
2022/01/04 00:23:00;;;;;;;5.35;3.50;;;;;;;7.83;89.34;100145.63;5025644;28;20053;-70
2022/01/04 00:25:25;;;;;;;6.15;3.08;;;;;;;7.81;88.99;100142.25;5025540;28;20025;-70
2022/01/04 00:27:51;;;;;;;4.15;2.88;;;;;;;7.78;89.28;100132.75;5025250;28;20471;-70
2022/01/04 00:30:16;;;;;;;4.85;3.50;;;;;;;7.78;89.21;100127.47;5023622;28;20083;-69
2022/01/04 00:32:42;;;;;;;3.50;3.20;;;;;;;7.76;89.21;100124.09;5030256;28;20029;-71
2022/01/04 00:35:08;;;;;;;5.85;3.22;;;;;;;7.77;89.34;100109.91;5030965;28;20030;-69
2022/01/04 00:37:33;;;;;;;6.10;3.67;;;;;;;7.76;89.41;100102.09;5031649;28;20030;-69
2022/01/04 00:39:59;;;;;;;6.70;3.13;;;;;;;7.74;89.37;100099.59;5025432;28;20030;-69
2022/01/04 00:42:24;;;;;;;6.22;3.30;;;;;;;7.75;89.24;100089.84;5031560;28;20188;-68
2022/01/04 00:44:49;;;;;;;4.05;3.03;;;;;;;7.73;89.33;100078.56;5023399;28;20034;-69
2022/01/04 00:47:15;;;;;;;6.00;3.13;;;;;;;7.71;89.44;100086.59;5031492;28;20026;-69
2022/01/04 00:49:41;;;;;;;4.40;3.38;;;;;;;7.72;89.55;100084.78;5025221;28;20042;-69
2022/01/04 00:52:07;;;;;;;5.05;3.67;;;;;;;7.70;89.66;100082.25;5011852;28;20368;-69
2022/01/04 00:54:34;;;;;;;4.40;3.33;;;;;;;7.69;89.50;100085.03;5011658;28;20056;-68
2022/01/04 00:56:59;;;;;;;5.47;3.72;;;;;;;7.69;89.64;100083.22;5011765;28;20109;-69
2022/01/04 00:59:24;;;;;;;6.65;3.17;;;;;;;7.66;89.44;100075.53;5011637;28;20125;-69
2022/01/04 01:01:49;;;;;;;7.13;3.53;;;;;;;7.65;89.88;100067.72;5011589;28;20424;-70
2022/01/04 01:04:15;;;;;;;7.32;3.60;;;;;;;7.65;89.64;100068.56;5011356;28;20032;-70
2022/01/04 01:06:40;;;;;;;7.57;4.13;;;;;;;7.64;89.74;100060.75;5012879;28;20022;-69
2022/01/04 01:09:05;;;;;;;5.63;3.60;;;;;;;7.63;89.79;100059.06;5025114;28;20029;-69
2022/01/04 01:11:31;;;;;;;9.50;3.90;;;;;;;7.62;89.88;100052.09;5031134;28;20040;-70
2022/01/04 01:13:56;;;;;;;6.28;3.80;;;;;;;7.60;89.88;100060.16;5019339;28;20391;-69
2022/01/04 01:16:22;;;;;;;5.65;3.53;;;;;;;7.60;89.67;100058.34;5031042;28;20033;-70
2022/01/04 01:18:47;;;;;;;7.53;3.95;;;;;;;7.62;89.88;100057.38;5030857;28;20026;-70
2022/01/04 01:21:13;;;;;;;7.60;3.58;;;;;;;7.57;89.71;100050.63;5026283;28;20104;-69
2022/01/04 01:23:38;;;;;;;6.05;3.70;;;;;;;7.58;89.78;100059.44;5023079;28;20040;-70
2022/01/04 01:26:06;;;;;;;8.38;3.65;;;;;;;7.54;89.82;100053.53;5030594;28;20485;-69
2022/01/04 01:28:33;;;;;;;8.25;3.70;;;;;;;7.56;89.97;100048.13;5030833;28;20112;-69
2022/01/04 01:30:59;;;;;;;7.60;4.05;;;;;;;7.54;89.90;100045.63;5019404;28;20038;-70
2022/01/04 01:33:27;;;;;;;7.00;4.03;;;;;;;7.54;89.83;100036.81;5030847;28;20390;-69
2022/01/04 01:35:52;;;;;;;6.15;4.30;;;;;;;7.54;89.94;100036.81;5026347;28;20104;-69
2022/01/04 01:38:19;;;;;;;7.95;4.45;;;;;;;7.52;89.86;100031.66;5029882;28;20134;-70
2022/01/04 01:40:45;;;;;;;7.40;4.07;;;;;;;7.51;89.92;100034.41;5028440;28;20109;-70
2022/01/04 01:43:10;;;;;;;8.63;4.32;;;;;;;7.49;89.91;100021.31;5027430;28;20108;-70
2022/01/04 01:45:36;;;;;;;6.32;4.07;;;;;;;7.49;90.02;100023.13;5028124;28;20152;-69
2022/01/04 01:48:02;;;;;;;9.50;4.72;;;;;;;7.48;89.93;100019.66;5030375;28;20035;-70
2022/01/04 01:50:27;;;;;;;7.95;4.70;;;;;;;7.45;89.99;100011.97;5021377;28;20057;-70
2022/01/04 01:52:54;;;;;;;7.35;4.88;;;;;;;7.45;90.22;100011.13;5030453;28;20527;-70
2022/01/04 01:55:21;;;;;;;7.38;4.65;;;;;;;7.47;90.11;100012.69;5023561;28;20040;-70
2022/01/04 01:57:48;;;;;;;9.23;4.93;;;;;;;7.46;89.96;100013.66;5030213;28;20022;-70
2022/01/04 02:00:15;;;;;;;7.68;4.85;;;;;;;7.46;90.21;100023.34;5030057;28;20057;-70
2022/01/04 02:02:41;;;;;;;8.75;4.90;;;;;;;7.45;90.13;100011.13;5026617;28;20029;-70
2022/01/04 02:05:07;;;;;;;6.85;4.78;;;;;;;7.44;90.06;100018.19;5028490;28;20025;-70
2022/01/04 02:07:33;;;;;;;6.63;5.13;;;;;;;7.44;90.01;100001.50;5027716;28;20032;-70
2022/01/04 02:10:05;;;;;;;7.03;4.90;;;;;;;7.43;90.05;99998.03;5030288;28;20030;-70
2022/01/04 02:12:40;;;;;;;11.63;5.03;;;;;;;7.40;90.05;99990.34;5020921;28;20068;-70
2022/01/04 02:15:08;;;;;;;9.18;5.20;;;;;;;7.40;90.17;99987.69;5030313;28;20036;-70
2022/01/04 02:17:34;;;;;;;11.37;5.13;;;;;;;7.40;90.11;99977.97;5030118;28;20036;-71
2022/01/04 02:20:00;;;;;;;8.70;5.00;;;;;;;7.39;90.12;99970.16;5027429;28;20446;-70
2022/01/04 02:22:27;;;;;;;9.20;5.63;;;;;;;7.38;90.20;99971.13;5030127;28;20468;-71
2022/01/04 02:24:53;;;;;;;9.57;6.07;;;;;;;7.37;90.31;99966.78;5029992;28;20032;-70
2022/01/04 02:27:18;;;;;;;9.32;5.50;;;;;;;7.34;90.16;99964.38;5023776;28;20025;-70
2022/01/04 02:29:45;;;;;;;9.90;5.38;;;;;;;7.34;90.20;99961.75;5030102;28;20018;-70
2022/01/04 02:32:11;;;;;;;11.70;5.53;;;;;;;7.34;90.29;99967.03;5030151;28;20034;-70
2022/01/04 02:34:36;;;;;;;9.98;5.78;;;;;;;7.32;89.90;99959.22;5016501;28;20037;-70
2022/01/04 02:37:02;;;;;;;8.65;5.25;;;;;;;7.32;90.28;99958.38;5028289;28;20120;-70
2022/01/04 02:39:27;;;;;;;11.35;5.57;;;;;;;7.31;90.36;99960.19;5023437;28;20037;-70
2022/01/04 02:41:52;;;;;;;12.55;6.32;;;;;;;7.31;89.98;99961.97;5029936;28;20033;-70
2022/01/04 02:44:18;;;;;;;11.32;6.00;;;;;;;7.29;90.13;99955.97;5029107;28;20514;-69
2022/01/04 02:46:43;;;;;;;9.82;5.90;;;;;;;7.29;90.16;99955.97;5029565;28;20026;-69
2022/01/04 02:49:09;;;;;;;9.70;6.05;;;;;;;7.28;90.13;99946.34;5031908;28;20053;-70
2022/01/04 02:51:34;;;;;;;13.35;5.97;;;;;;;7.27;90.49;99942.88;5030683;28;20060;-69
2022/01/04 02:53:59;;;;;;;9.23;5.75;;;;;;;7.28;90.23;99936.66;5030432;28;20026;-69
2022/01/04 02:56:24;;;;;;;12.38;5.43;;;;;;;7.28;89.79;99935.78;5033378;28;20041;-70
2022/01/04 02:58:50;;;;;;;8.60;5.47;;;;;;;7.28;90.00;99925.22;5032930;28;20533;-70
2022/01/04 03:01:15;;;;;;;13.07;6.30;;;;;;;7.26;89.88;99928.03;5021564;28;20030;-69
2022/01/04 03:03:40;;;;;;;10.18;5.65;;;;;;;7.26;90.41;99916.59;5032097;28;20033;-70
2022/01/04 03:06:06;;;;;;;8.23;5.00;;;;;;;7.23;90.03;99917.69;5032611;28;20025;-71
2022/01/04 03:08:31;;;;;;;10.20;5.15;;;;;;;7.23;89.78;99923.81;5027036;28;20481;-70
2022/01/04 03:10:56;;;;;;;10.10;5.05;;;;;;;7.20;89.95;99910.00;5031912;28;20094;-70
2022/01/04 03:13:21;;;;;;;12.32;5.15;;;;;;;7.20;89.68;99904.72;5032789;28;20040;-70
2022/01/04 03:15:47;;;;;;;7.38;4.63;;;;;;;7.18;89.79;99891.63;5030012;28;20029;-70
2022/01/04 03:18:13;;;;;;;7.65;4.60;;;;;;;7.19;89.88;99892.47;5033137;28;20112;-70
2022/01/04 03:20:38;;;;;;;8.55;4.35;;;;;;;7.17;89.80;99879.38;5033009;28;20021;-70
2022/01/04 03:23:08;;;;;;;8.02;4.95;;;;;;;7.18;89.81;99873.13;5021591;28;20029;-70
2022/01/04 03:25:34;;;;;;;10.45;5.18;;;;;;;7.17;89.82;99875.91;5033263;28;20497;-70
2022/01/04 03:27:59;;;;;;;7.95;4.85;;;;;;;7.16;90.13;99867.16;5020178;28;20030;-70
2022/01/04 03:30:24;;;;;;;8.55;4.55;;;;;;;7.17;89.91;99854.78;5032827;28;20236;-70
2022/01/04 03:32:50;;;;;;;8.45;4.50;;;;;;;7.17;90.09;99858.25;5032765;28;20382;-70
2022/01/04 03:35:16;;;;;;;9.27;4.78;;;;;;;7.16;89.94;99853.94;5031648;28;20076;-70
2022/01/04 03:37:42;;;;;;;10.25;4.90;;;;;;;7.15;89.94;99846.13;5032618;28;20116;-70
2022/01/04 03:40:08;;;;;;;8.20;5.10;;;;;;;7.15;89.87;99844.31;5026106;28;20435;-70
2022/01/04 03:42:33;;;;;;;7.93;4.60;;;;;;;7.16;90.04;99835.47;5032657;28;20483;-70
2022/01/04 03:44:59;;;;;;;6.85;4.90;;;;;;;7.15;89.96;99825.84;5032623;28;20018;-70
2022/01/04 03:47:24;;;;;;;7.93;4.72;;;;;;;7.15;89.85;99827.66;5027929;28;20030;-70
2022/01/04 03:49:49;;;;;;;8.20;4.55;;;;;;;7.13;89.79;99816.38;5014544;28;20107;-70
2022/01/04 03:52:15;;;;;;;8.82;5.47;;;;;;;7.13;90.08;99805.81;5031399;28;20026;-70
2022/01/04 03:54:40;;;;;;;9.93;5.15;;;;;;;7.11;90.27;99803.28;5032474;28;20025;-70
2022/01/04 03:57:05;;;;;;;8.57;5.18;;;;;;;7.11;90.39;99805.94;5032395;28;20111;-70
2022/01/04 03:59:31;;;;;;;9.60;5.35;;;;;;;7.12;90.30;99796.19;5021480;28;20037;-70
2022/01/04 04:01:56;;;;;;;8.90;4.85;;;;;;;7.11;90.29;99792.72;5028713;28;20014;-69
2022/01/04 04:04:21;;;;;;;9.70;5.43;;;;;;;7.09;90.17;99789.34;5030107;28;20025;-70
2022/01/04 04:06:47;;;;;;;10.82;5.90;;;;;;;7.08;90.25;99779.78;5028417;28;20031;-70
2022/01/04 04:09:12;;;;;;;11.27;5.97;;;;;;;7.10;90.09;99775.19;5030255;28;20302;-71
2022/01/04 04:11:37;;;;;;;10.63;6.10;;;;;;;7.09;90.42;99778.78;5030314;28;20021;-70
2022/01/04 04:14:03;;;;;;;10.27;5.97;;;;;;;7.09;90.27;99776.16;5018962;28;20033;-70
2022/01/04 04:16:28;;;;;;;9.38;6.65;;;;;;;7.10;90.58;99777.84;5030369;28;20475;-70
2022/01/04 04:18:53;;;;;;;9.38;6.10;;;;;;;7.09;90.33;99770.88;5032323;28;20447;-69
2022/01/04 04:21:19;;;;;;;13.10;7.40;;;;;;;7.10;90.41;99767.28;5030774;28;20061;-69
2022/01/04 04:23:44;;;;;;;13.10;6.90;;;;;;;7.10;90.34;99756.72;5030474;28;20049;-69
2022/01/04 04:26:09;;;;;;;10.93;7.03;;;;;;;7.10;90.55;99756.72;5031428;28;20356;-70
2022/01/04 04:28:35;;;;;;;10.98;7.22;;;;;;;7.09;90.36;99755.03;5022586;28;20162;-69
2022/01/04 04:31:02;;;;;;;11.95;7.38;;;;;;;7.10;90.45;99758.53;5026847;28;20475;-68
2022/01/04 04:33:27;;;;;;;10.88;6.70;;;;;;;7.09;90.73;99755.03;5031709;28;20084;-70
2022/01/04 04:35:52;;;;;;;11.25;6.95;;;;;;;7.09;90.68;99749.75;5031534;28;20495;-70
2022/01/04 04:38:18;;;;;;;10.65;6.78;;;;;;;7.10;90.55;99745.31;5016420;28;20034;-70
2022/01/04 04:40:44;;;;;;;11.93;6.93;;;;;;;7.10;90.57;99751.44;5031922;28;20029;-69
2022/01/04 04:43:09;;;;;;;10.82;6.38;;;;;;;7.07;90.43;99743.75;5031520;28;20103;-69
2022/01/04 04:45:34;;;;;;;11.32;7.22;;;;;;;7.07;90.42;99740.28;5029074;28;20022;-69
2022/01/04 04:47:59;;;;;;;15.20;7.20;;;;;;;7.06;90.61;99739.44;5031217;28;20411;-69
2022/01/04 04:50:25;;;;;;;10.85;7.13;;;;;;;7.08;90.53;99742.81;5031215;28;20486;-68
2022/01/04 04:52:51;;;;;;;13.40;7.63;;;;;;;7.04;90.64;99750.13;5031056;28;20075;-70
2022/01/04 04:55:16;;;;;;;13.38;7.93;;;;;;;7.04;90.54;99749.28;5029652;28;20038;-70
2022/01/04 04:57:42;;;;;;;16.15;7.95;;;;;;;7.06;90.78;99749.16;5031079;28;20025;-68
2022/01/04 05:00:08;;;;;;;17.95;8.20;;;;;;;7.05;90.73;99748.31;5031524;28;20082;-69
2022/01/04 05:02:34;;;;;;;12.68;7.95;;;;;;;7.05;90.78;99748.31;5027913;28;20048;-69
2022/01/04 05:05:00;;;;;;;14.10;7.93;;;;;;;7.03;90.85;99735.25;5031446;28;20375;-69
2022/01/04 05:07:26;;;;;;;14.13;8.20;;;;;;;7.04;90.75;99739.56;5029614;28;20034;-70
2022/01/04 05:09:51;;;;;;;16.08;8.18;;;;;;;7.03;90.74;99740.53;5031240;28;20113;-69
2022/01/04 05:12:17;;;;;;;14.07;8.82;;;;;;;7.02;90.76;99736.19;5030657;28;20259;-69
2022/01/04 05:14:46;;;;;;;16.17;8.80;;;;;;;7.01;90.75;99737.16;5023386;28;20878;-69
2022/01/04 05:17:12;;;;;;;16.67;9.10;;;;;;;7.01;91.04;99728.38;5020292;28;20038;-69
2022/01/04 05:19:37;;;;;;;16.23;8.48;;;;;;;7.02;90.91;99728.28;5030325;28;20072;-69
2022/01/04 05:22:02;;;;;;;14.18;8.70;;;;;;;7.02;90.80;99730.91;5030778;28;20167;-70
2022/01/04 05:24:27;;;;;;;14.05;9.63;;;;;;;7.02;91.02;99723.00;5030657;28;20406;-70
2022/01/04 05:26:53;;;;;;;16.00;9.00;;;;;;;7.03;91.29;99718.56;5027942;28;20025;-70
2022/01/04 05:29:18;;;;;;;12.35;9.20;;;;;;;7.01;91.57;99717.84;5030543;28;20118;-71
2022/01/04 05:31:43;;;;;;;15.45;9.82;;;;;;;7.00;91.69;99713.53;5022939;28;20135;-71
2022/01/04 05:34:08;;;;;;;13.88;9.88;;;;;;;6.99;92.29;99714.47;5030725;28;20384;-71
2022/01/04 05:36:35;;;;;;;17.63;9.38;;;;;;;6.97;92.65;99704.03;5030450;28;20078;-72
2022/01/04 05:39:00;;;;;;;13.45;9.60;;;;;;;6.95;92.29;99700.69;5030966;28;20025;-71
2022/01/04 05:41:26;;;;;;;14.07;9.10;;;;;;;6.96;92.30;99685.69;5018918;28;20033;-71
2022/01/04 05:43:51;;;;;;;14.10;9.27;;;;;;;6.93;92.87;99694.72;5030704;28;20029;-71
2022/01/04 05:46:16;;;;;;;15.43;9.10;;;;;;;6.92;92.92;99692.19;5030443;28;20143;-71
2022/01/04 05:48:42;;;;;;;12.85;9.57;;;;;;;6.91;93.14;99686.06;5030117;28;20410;-71
2022/01/04 05:51:07;;;;;;;14.40;9.45;;;;;;;6.90;93.14;99679.09;5024436;28;20049;-71
2022/01/04 05:53:33;;;;;;;14.95;9.50;;;;;;;6.90;93.29;99686.19;5028976;28;20481;-71
2022/01/04 05:55:58;;;;;;;13.82;9.32;;;;;;;6.90;93.21;99684.38;5030701;28;20387;-71
2022/01/04 05:58:24;;;;;;;13.88;9.38;;;;;;;6.88;93.22;99683.69;5030337;28;20028;-71
2022/01/04 06:00:49;;;;;;;12.18;9.18;;;;;;;6.90;93.60;99686.19;5019126;28;20040;-71
2022/01/04 06:03:15;;;;;;;13.00;9.43;;;;;;;6.88;93.40;99678.41;5030365;28;20052;-71
2022/01/04 06:05:41;;;;;;;12.80;9.75;;;;;;;6.88;93.68;99678.41;5026810;28;20061;-72
2022/01/04 06:08:06;;;;;;;11.60;9.63;;;;;;;6.87;93.56;99671.44;5030196;28;20053;-71
2022/01/04 06:10:38;;;;;;;13.75;9.20;;;;;;;6.87;93.79;99671.44;5023775;28;20073;-70
2022/01/04 06:15:28;;;;;;;12.65;10.15;;;;;;;6.86;93.89;99667.09;5030445;28;20487;-71
2022/01/04 06:17:54;;;;;;;15.00;10.40;;;;;;;6.85;93.89;99668.91;5030111;28;20033;-70
2022/01/04 06:20:24;;;;;;;13.90;10.27;;;;;;;6.84;93.91;99669.88;5024641;28;20028;-71
2022/01/04 06:22:51;;;;;;;14.35;10.65;;;;;;;6.83;94.17;99668.19;5026777;28;20026;-71
2022/01/04 06:25:19;;;;;;;12.60;10.65;;;;;;;6.82;94.27;99661.22;5034076;28;20030;-71
2022/01/04 06:27:46;;;;;;;14.85;10.98;;;;;;;6.81;94.43;99656.06;5033832;28;20045;-71
2022/01/04 06:30:17;;;;;;;13.93;10.07;;;;;;;6.81;94.63;99656.06;5028284;28;20105;-71
2022/01/04 06:32:43;;;;;;;15.65;10.23;;;;;;;6.81;94.37;99661.34;5027978;28;20017;-71
2022/01/04 06:35:10;;;;;;;12.38;10.57;;;;;;;6.80;94.62;99657.88;5033829;28;20420;-71
2022/01/04 06:37:35;;;;;;;17.83;11.18;;;;;;;6.81;94.39;99662.22;5029701;28;20033;-71
2022/01/04 06:40:00;;;;;;;14.18;11.45;;;;;;;6.81;94.69;99656.06;5031355;28;20083;-71
2022/01/04 06:42:26;;;;;;;14.43;11.13;;;;;;;6.80;94.62;99659.69;5031989;28;20037;-71
2022/01/04 06:44:51;;;;;;;16.33;11.07;;;;;;;6.80;94.82;99664.97;5033605;28;20033;-71
2022/01/04 06:47:16;;;;;;;16.30;11.00;;;;;;;6.81;94.79;99658.72;5031871;28;20028;-72
2022/01/04 06:49:42;;;;;;;13.60;11.10;;;;;;;6.82;94.42;99652.50;5025553;28;20486;-70
2022/01/04 06:52:08;;;;;;;13.85;11.18;;;;;;;6.80;94.65;99638.59;5032432;28;20029;-70
2022/01/04 06:54:34;;;;;;;15.82;11.45;;;;;;;6.81;94.36;99634.97;5033469;28;20061;-70
2022/01/04 06:56:59;;;;;;;14.35;10.88;;;;;;;6.82;94.51;99636.66;5033553;28;20098;-70
2022/01/04 06:59:25;;;;;;;15.40;11.63;;;;;;;6.82;94.63;99632.19;5032109;28;20459;-69
2022/01/04 07:01:50;;;;;;;16.75;11.90;;;;;;;6.81;94.53;99632.31;5033343;28;20091;-71
2022/01/04 07:04:15;;;;;;;14.63;11.80;;;;;;;6.80;94.41;99635.94;5031270;28;20021;-69
2022/01/04 07:06:41;;;;;;;16.02;12.02;;;;;;;6.81;94.64;99640.25;5026057;28;20030;-70
2022/01/04 07:09:08;;;;;;;16.20;11.35;;;;;;;6.79;94.69;99631.63;5033339;28;20026;-71
2022/01/04 07:11:34;;;;;;;14.82;11.27;;;;;;;6.76;94.79;99616.88;5032024;28;20025;-70
2022/01/04 07:14:00;;;;;;;13.75;12.02;;;;;;;6.76;94.76;99608.09;5031737;28;20072;-70
2022/01/04 07:16:25;;;;;;;15.77;11.93;;;;;;;6.77;94.70;99607.16;5031852;28;20030;-70
2022/01/04 07:18:50;;;;;;;14.60;11.80;;;;;;;6.76;95.01;99614.25;5032978;28;20031;-71
2022/01/04 07:21:16;;;;;;;16.15;12.38;;;;;;;6.74;94.90;99613.50;5033122;28;20048;-71
2022/01/04 07:23:43;;;;;;;17.20;12.00;;;;;;;6.74;94.95;99618.78;5021183;28;20358;-72
2022/01/04 07:26:11;;;;;;;15.50;12.48;;;;;;;6.74;94.90;99610.88;5025707;28;20076;-71
2022/01/04 07:28:38;;;;;;;16.65;12.38;;;;;;;6.73;95.12;99606.56;5026693;28;20451;-71
2022/01/04 07:31:05;;;;;;;16.92;12.70;;;;;;;6.73;94.83;99597.78;5025706;28;20021;-71
2022/01/04 07:33:30;;;;;;;17.58;12.98;;;;;;;6.73;95.15;99585.47;5028378;28;20471;-71
2022/01/04 07:35:55;;;;;;;15.73;12.35;;;;;;;6.75;95.29;99585.34;5015797;28;20029;-71
2022/01/04 07:38:20;;;;;;;19.45;13.40;;;;;;;6.74;95.11;99578.38;5015922;28;20051;-71
2022/01/04 07:40:46;;;;;;;20.48;12.82;;;;;;;6.71;94.99;99557.50;5020408;28;20033;-71
2022/01/04 07:43:12;;;;;;;18.50;14.25;;;;;;;6.73;95.19;99568.75;5017089;28;20041;-73
2022/01/04 07:45:37;;;;;;;19.00;13.85;;;;;;;6.71;94.92;99573.34;5018913;28;20045;-71
2022/01/04 07:48:03;;;;;;;20.63;15.05;;;;;;;6.70;94.83;99580.41;5033108;28;20120;-71
2022/01/04 07:50:28;;;;;;;19.60;14.35;;;;;;;6.69;95.15;99576.09;5030876;28;20045;-71
2022/01/04 07:52:54;;;;;;;19.27;13.90;;;;;;;6.70;95.02;99588.34;5031663;28;20025;-71
2022/01/04 07:55:19;;;;;;;18.58;14.00;;;;;;;6.71;95.08;99592.66;5028256;28;20483;-71
2022/01/04 07:57:45;;;;;;;20.38;14.70;;;;;;;6.71;95.10;99599.72;5015103;28;20013;-71
2022/01/04 08:00:14;;;;;;;21.73;15.75;;;;;;;6.71;95.20;99603.22;5016470;28;20045;-71
2022/01/04 08:02:41;;;;;;;19.33;14.07;;;;;;;6.71;94.84;99597.09;5012164;28;20034;-71
2022/01/04 08:05:08;;;;;;;20.42;14.90;;;;;;;6.71;95.27;99597.09;5016942;28;20092;-71
2022/01/04 08:07:34;;;;;;;21.98;15.00;;;;;;;6.70;95.33;99584.88;5014485;28;20087;-72
2022/01/04 08:09:59;;;;;;;19.80;15.20;;;;;;;6.73;95.15;99590.72;5016509;28;20074;-71
2022/01/04 08:12:25;;;;;;;20.80;14.95;;;;;;;6.73;95.04;99584.59;5015248;28;20033;-71
2022/01/04 08:14:51;;;;;;;22.67;16.50;;;;;;;6.71;95.10;99590.03;5017224;28;20060;-71
2022/01/04 08:17:16;;;;;;;21.23;15.30;;;;;;;6.73;95.21;99587.25;5012566;28;20025;-71
2022/01/04 08:19:42;;;;;;;21.40;15.32;;;;;;;6.74;95.14;99596.84;5018872;28;20098;-71
2022/01/04 08:22:07;;;;;;;20.73;15.45;;;;;;;6.74;95.17;99597.66;5042832;28;20120;-69
2022/01/04 08:24:32;;;;;;;22.45;16.00;;;;;;;6.74;95.22;99612.69;5031838;28;20429;-71
2022/01/04 08:26:58;;;;;;;22.35;16.52;;;;;;;6.73;95.28;99597.78;5028908;28;20022;-71
2022/01/04 08:29:24;;;;;;;22.25;15.60;;;;;;;6.75;95.38;99596.72;5028023;28;20510;-72
2022/01/04 08:31:50;;;;;;;24.33;16.35;;;;;;;6.75;95.29;99602.00;5023603;28;20022;-71
2022/01/04 08:34:15;;;;;;;24.60;17.55;;;;;;;6.77;95.19;99599.25;5019464;28;20069;-72
2022/01/04 08:36:40;;;;;;;24.05;16.67;;;;;;;6.76;95.20;99594.91;5017467;28;20285;-71
2022/01/04 08:39:06;;;;;;;23.88;17.73;;;;;;;6.77;94.92;99601.88;5021526;28;20398;-71
2022/01/04 08:41:32;;;;;;;23.33;16.50;;;;;;;6.78;95.07;99607.03;5048358;28;20032;-71
2022/01/04 08:43:57;;;;;;;22.17;15.93;;;;;;;6.78;95.17;99625.50;5042060;28;20474;-72
2022/01/04 08:46:23;;;;;;;24.08;16.33;;;;;;;6.79;95.17;99632.44;5018214;28;20041;-71
2022/01/04 08:48:48;;;;;;;25.85;17.13;;;;;;;6.80;95.08;99630.66;5036650;28;20119;-68
2022/01/04 08:51:14;;;;;;;24.30;16.70;;;;;;;6.78;95.23;99624.69;5048608;28;20474;-67
2022/01/04 08:53:39;;;;;;;23.95;16.40;;;;;;;6.80;95.00;99638.59;5040202;28;20060;-68
2022/01/04 08:56:05;;;;;;;21.77;16.08;;;;;;;6.81;94.99;99638.47;5029070;28;20147;-68
2022/01/04 08:58:30;;;;;;;24.42;16.63;;;;;;;6.84;94.84;99642.63;5042164;28;20459;-70
2022/01/04 09:00:56;;;;;;;23.58;16.02;;;;;;;6.83;94.92;99633.88;5037782;28;20033;-70
2022/01/04 09:03:21;;;;;;;24.27;15.63;;;;;;;6.85;94.67;99634.59;5031835;28;20021;-70
2022/01/04 09:05:47;;;;;;;23.40;16.70;;;;;;;6.85;94.55;99624.03;5017427;28;20120;-70
2022/01/04 09:08:12;;;;;;;23.60;16.80;;;;;;;6.88;94.72;99614.19;5035613;28;20036;-71
2022/01/04 09:10:37;;;;;;;22.98;16.10;;;;;;;6.90;94.69;99617.56;5050493;28;20383;-70
2022/01/04 09:13:16;;;;;;;23.10;16.25;;;;;;;6.91;94.64;99628.00;5048416;28;20056;-70
2022/01/04 09:18:45;;;;;;;26.00;17.60;;;;;;;6.95;94.51;99616.22;5019778;28;20038;-71
2022/01/04 09:21:27;;;;;;;22.85;17.05;;;;;;;6.95;94.59;99605.66;5013886;28;20496;-70
2022/01/04 09:23:55;;;;;;;21.92;17.02;;;;;;;6.97;94.56;99610.81;5030236;28;20464;-69
2022/01/04 09:26:22;;;;;;;25.05;17.65;;;;;;;6.98;94.53;99615.97;5028806;28;20025;-69
2022/01/04 09:28:47;;;;;;;24.55;17.73;;;;;;;6.99;94.41;99632.66;5029417;28;20056;-69
2022/01/04 09:31:13;;;;;;;24.40;18.52;;;;;;;7.01;94.42;99642.13;5032434;28;20029;-68
2022/01/04 09:33:38;;;;;;;25.90;19.15;;;;;;;7.02;94.37;99638.50;5030516;28;20462;-69
2022/01/04 09:36:04;;;;;;;27.23;18.40;;;;;;;7.02;94.02;99638.50;5029407;28;20422;-70
2022/01/04 09:38:30;;;;;;;26.95;19.27;;;;;;;7.02;94.36;99642.97;5028011;28;20085;-70
2022/01/04 09:40:55;;;;;;;24.83;19.13;;;;;;;7.02;94.13;99633.22;5032118;28;20025;-69
2022/01/04 09:43:22;;;;;;;26.30;19.45;;;;;;;7.04;94.35;99635.75;5032214;28;20372;-71
2022/01/04 09:45:48;;;;;;;29.20;20.33;;;;;;;7.03;94.21;99634.91;5030531;28;20430;-70
2022/01/04 09:48:14;;;;;;;29.13;22.23;;;;;;;7.04;94.33;99625.19;5027210;28;20025;-71
2022/01/04 09:50:41;;;;;;;28.38;20.23;;;;;;;7.05;94.13;99645.34;5014289;28;20108;-71
2022/01/04 09:53:09;;;;;;;28.85;21.02;;;;;;;7.05;94.11;99645.34;5014581;28;20024;-70
2022/01/04 09:55:35;;;;;;;30.27;22.60;;;;;;;7.07;93.93;99622.31;5020434;28;20558;-69
2022/01/04 09:58:01;;;;;;;30.23;21.38;;;;;;;7.09;94.17;99616.91;5032259;28;20113;-70
2022/01/04 10:00:27;;;;;;;34.90;23.50;;;;;;;7.08;94.07;99621.34;5036103;28;20032;-71
2022/01/04 10:03:09;;;;;;;33.03;22.25;;;;;;;7.11;93.80;99626.38;5029028;28;20017;-71
2022/01/04 10:05:35;;;;;;;30.08;22.13;;;;;;;7.13;93.68;99623.63;5034342;28;20024;-70
2022/01/04 10:08:03;;;;;;;34.83;23.73;;;;;;;7.13;93.65;99618.34;5035901;28;20379;-71
2022/01/04 10:10:29;;;;;;;33.40;23.58;;;;;;;7.16;93.99;99623.34;5033313;28;20020;-71
2022/01/04 10:12:59;;;;;;;34.83;23.75;;;;;;;7.16;94.00;99612.78;5028685;28;20033;-70
2022/01/04 10:15:45;;;;;;;35.03;24.33;;;;;;;7.21;94.14;99606.19;5025541;28;20108;-72
2022/01/04 10:18:14;;;;;;;32.47;23.40;;;;;;;7.24;93.83;99599.78;5034877;28;20072;-71
2022/01/04 10:20:44;;;;;;;35.70;24.65;;;;;;;7.25;93.64;99598.84;5035065;28;20029;-70
2022/01/04 10:23:11;;;;;;;33.60;23.58;;;;;;;7.24;93.30;99589.22;5032408;28;20026;-71
2022/01/04 10:25:37;;;;;;;32.28;23.88;;;;;;;7.30;93.56;99593.19;5025332;28;20534;-71
2022/01/04 10:28:03;;;;;;;34.55;24.50;;;;;;;7.31;93.33;99595.69;5032672;28;20064;-72
2022/01/04 10:30:34;;;;;;;33.65;23.52;;;;;;;7.31;93.58;99587.78;5028469;28;20101;-72
2022/01/04 10:33:02;;;;;;;33.33;22.58;;;;;;;7.34;93.40;99597.22;5013081;28;20472;-71
2022/01/04 10:35:36;;;;;;;36.50;25.27;;;;;;;7.37;93.41;99596.97;5012717;28;20065;-71
2022/01/04 10:38:16;;;;;;;37.42;24.70;;;;;;;7.39;93.14;99587.09;5012912;28;20092;-71
2022/01/04 10:40:45;;;;;;;38.05;25.20;;;;;;;7.39;93.27;99585.31;5012722;28;20030;-71
2022/01/04 10:43:16;;;;;;;37.33;25.30;;;;;;;7.42;93.44;99597.44;5012913;28;20036;-71
2022/01/04 10:45:45;;;;;;;36.45;25.90;;;;;;;7.44;93.14;99589.38;5012875;28;20459;-71
2022/01/04 10:48:26;;;;;;;36.17;25.40;;;;;;;7.47;93.31;99592.59;5012963;28;20033;-71
2022/01/04 10:50:55;;;;;;;32.28;24.58;;;;;;;7.47;93.06;99584.66;5012530;28;20500;-71
2022/01/04 10:53:25;;;;;;;35.23;26.23;;;;;;;7.50;92.95;99584.41;5012702;28;20034;-71
2022/01/04 10:55:54;;;;;;;34.63;24.90;;;;;;;7.48;93.00;99581.06;5012731;28;20040;-71
2022/01/04 10:58:22;;;;;;;36.40;25.88;;;;;;;7.53;93.03;99588.63;5012167;28;20034;-71
2022/01/04 11:00:57;;;;;;;33.33;24.53;;;;;;;7.55;93.18;99584.88;5012204;28;20511;-70
2022/01/04 11:03:25;;;;;;;36.95;27.90;;;;;;;7.55;92.83;99584.88;5012468;28;20036;-70
2022/01/04 11:05:58;;;;;;;39.20;27.83;;;;;;;7.58;92.71;99576.69;5031144;28;20025;-70
2022/01/04 11:08:24;;;;;;;41.17;27.00;;;;;;;7.61;92.63;99578.25;5028756;28;20523;-70
2022/01/04 11:10:50;;;;;;;35.90;25.63;;;;;;;7.65;92.64;99576.16;5030963;28;20026;-69
2022/01/04 11:13:16;;;;;;;33.72;25.25;;;;;;;7.66;92.52;99577.81;5023646;28;20387;-71
2022/01/04 11:15:42;;;;;;;35.25;25.60;;;;;;;7.66;92.68;99573.41;5031475;28;20040;-72
2022/01/04 11:18:07;;;;;;;35.25;25.75;;;;;;;7.69;92.74;99570.47;5031635;28;20033;-72
2022/01/04 11:20:34;;;;;;;34.72;25.52;;;;;;;7.69;92.15;99570.47;5028214;28;20029;-72
2022/01/04 11:23:00;;;;;;;36.35;25.55;;;;;;;7.70;92.15;99572.16;5020605;28;20387;-71
2022/01/04 11:25:27;;;;;;;31.40;25.75;;;;;;;7.70;91.96;99587.19;5029751;28;20094;-72
2022/01/04 11:27:55;;;;;;;35.78;25.95;;;;;;;7.70;92.02;99595.94;5026155;28;20375;-71
2022/01/04 11:30:29;;;;;;;34.95;25.63;;;;;;;7.71;91.96;99575.63;5020855;28;20499;-71
2022/01/04 11:33:02;;;;;;;36.92;25.00;;;;;;;7.73;92.19;99584.28;5027914;28;20032;-71
2022/01/04 11:35:29;;;;;;;37.88;26.17;;;;;;;7.73;92.35;99587.75;5031052;28;20179;-72